createdAt,value
2023-04-03T00:00:54.983Z,5.79
2023-04-03T00:03:22.395Z,5.74
2023-04-03T00:05:49.706Z,5.81
2023-04-03T00:08:16.944Z,5.82
2023-04-03T00:10:44.194Z,5.85
2023-04-03T00:13:11.599Z,5.85
2023-04-03T00:15:39.037Z,5.79
2023-04-03T00:18:06.391Z,5.75
2023-04-03T00:20:34.413Z,5.74
2023-04-03T00:23:02.156Z,5.75
2023-04-03T00:25:29.494Z,5.76
2023-04-03T00:27:56.786Z,5.79
2023-04-03T00:30:24.095Z,5.78
2023-04-03T00:32:52.005Z,5.76
2023-04-03T00:35:19.816Z,5.84
2023-04-03T00:37:47.540Z,5.98
2023-04-03T00:40:15.630Z,5.89
2023-04-03T00:42:43.449Z,5.85
2023-04-03T00:45:16.688Z,5.86
2023-04-03T00:47:44.172Z,5.89
2023-04-03T00:50:11.358Z,5.95
2023-04-03T00:52:38.583Z,5.89
2023-04-03T00:55:07.499Z,5.94
2023-04-03T00:57:34.824Z,5.95
2023-04-03T01:00:11.295Z,6.03
2023-04-03T01:02:38.753Z,6.09
2023-04-03T01:05:07.324Z,6.15
2023-04-03T01:07:36.229Z,6.05
2023-04-03T01:10:06.593Z,6.10
2023-04-03T01:12:39.022Z,6.10
2023-04-03T01:15:10.820Z,6.06
2023-04-03T01:17:40.158Z,6.10
2023-04-03T01:20:38.258Z,6.10
2023-04-03T01:23:14.523Z,6.12
2023-04-03T01:25:50.115Z,6.12
2023-04-03T01:28:37.725Z,6.07
2023-04-03T01:31:21.869Z,6.01
2023-04-03T01:33:49.867Z,6.02
2023-04-03T01:36:25.763Z,6.06
2023-04-03T01:38:53.941Z,6.09
2023-04-03T01:41:22.111Z,6.13
2023-04-03T01:43:50.522Z,6.19
2023-04-03T01:46:18.400Z,6.12
2023-04-03T01:48:46.025Z,6.01
2023-04-03T01:51:13.317Z,6.03
2023-04-03T01:53:40.766Z,6.07
2023-04-03T01:56:08.208Z,5.99
2023-04-03T01:58:35.753Z,6.02
2023-04-03T02:01:03.289Z,6.03
2023-04-03T02:03:30.853Z,5.98
2023-04-03T02:05:58.122Z,6.07
2023-04-03T02:08:25.480Z,6.01
2023-04-03T02:10:52.844Z,5.91
2023-04-03T02:13:20.413Z,5.94
2023-04-03T02:15:48.712Z,5.94
2023-04-03T02:18:17.863Z,5.89
2023-04-03T02:20:45.141Z,5.92
2023-04-03T02:23:12.386Z,5.98
2023-04-03T02:25:39.598Z,5.89
2023-04-03T02:28:07.078Z,5.86
2023-04-03T02:30:34.542Z,5.89
2023-04-03T02:33:01.975Z,5.84
2023-04-03T02:35:29.551Z,5.91
2023-04-03T02:37:58.699Z,5.92
2023-04-03T02:40:26.301Z,5.89
2023-04-03T02:42:53.597Z,5.86
2023-04-03T02:45:21.990Z,5.88
2023-04-03T02:47:49.427Z,5.88
2023-04-03T02:50:16.810Z,5.91
2023-04-03T02:52:44.075Z,5.89
2023-04-03T02:55:15.022Z,5.84
2023-04-03T02:57:42.496Z,5.84
2023-04-03T03:00:10.989Z,5.75
2023-04-03T03:02:38.260Z,5.81
2023-04-03T03:05:05.979Z,5.81
2023-04-03T03:07:33.452Z,5.81
2023-04-03T03:10:00.807Z,5.85
2023-04-03T03:12:28.081Z,5.85
2023-04-03T03:14:56.851Z,5.86
2023-04-03T03:17:24.244Z,5.85
2023-04-03T03:19:51.430Z,5.79
2023-04-03T03:22:19.353Z,5.81
2023-04-03T03:24:46.623Z,5.72
2023-04-03T03:27:13.951Z,5.81
2023-04-03T03:29:41.210Z,5.76
2023-04-03T03:32:08.856Z,5.75
2023-04-03T03:34:36.206Z,5.82
2023-04-03T03:37:03.631Z,5.81
2023-04-03T03:39:30.845Z,5.76
2023-04-03T03:41:58.080Z,5.66
2023-04-03T03:44:25.491Z,5.74
2023-04-03T03:46:54.327Z,5.71
2023-04-03T03:49:22.053Z,5.76
2023-04-03T03:51:49.366Z,5.71
2023-04-03T03:54:16.600Z,5.71
2023-04-03T03:56:44.352Z,5.71
2023-04-03T03:59:13.593Z,5.66
2023-04-03T04:01:41.515Z,5.74
2023-04-03T04:04:09.438Z,5.69
2023-04-03T04:06:37.202Z,5.66
2023-04-03T04:09:08.153Z,5.64
2023-04-03T04:11:36.009Z,5.59
2023-04-03T04:14:03.712Z,5.55
2023-04-03T04:16:31.974Z,5.65
2023-04-03T04:19:06.683Z,5.64
2023-04-03T04:21:35.228Z,5.58
2023-04-03T04:24:02.496Z,5.57
2023-04-03T04:26:30.231Z,5.50
2023-04-03T04:28:57.559Z,5.47
2023-04-03T04:31:24.927Z,5.57
2023-04-03T04:33:52.807Z,5.51
2023-04-03T04:36:20.768Z,5.47
2023-04-03T04:38:49.306Z,5.37
2023-04-03T04:41:17.120Z,5.34
2023-04-03T04:43:45.446Z,5.33
2023-04-03T04:46:13.266Z,5.31
2023-04-03T04:48:46.096Z,5.41
2023-04-03T04:51:14.617Z,5.43
2023-04-03T04:53:42.736Z,5.44
2023-04-03T04:56:13.289Z,5.40
2023-04-03T04:58:41.211Z,5.37
2023-04-03T05:01:10.055Z,5.43
2023-04-03T05:03:44.212Z,5.48
2023-04-03T05:06:11.982Z,5.41
2023-04-03T05:08:39.420Z,5.37
2023-04-03T05:11:07.989Z,5.33
2023-04-03T05:13:36.105Z,5.40
2023-04-03T05:16:03.624Z,5.50
2023-04-03T05:18:31.524Z,5.43
2023-04-03T05:21:02.954Z,5.52
2023-04-03T05:23:30.560Z,5.57
2023-04-03T05:26:00.576Z,5.71
2023-04-03T05:28:29.060Z,5.69
2023-04-03T05:31:02.834Z,5.61
2023-04-03T05:33:35.420Z,5.61
2023-04-03T05:36:10.023Z,5.62
2023-04-03T05:38:43.766Z,5.65
2023-04-03T05:41:12.373Z,5.59
2023-04-03T05:43:40.513Z,5.55
2023-04-03T05:46:20.832Z,5.51
2023-04-03T05:48:56.602Z,5.51
2023-04-03T05:51:46.647Z,5.50
2023-04-03T05:54:31.585Z,5.55
2023-04-03T05:57:11.652Z,5.68
2023-04-03T05:59:39.733Z,5.54
2023-04-03T06:02:07.426Z,5.78
2023-04-03T06:04:38.131Z,5.62
2023-04-03T06:07:10.350Z,5.64
2023-04-03T06:09:38.974Z,5.57
2023-04-03T06:12:06.407Z,5.69
2023-04-03T06:14:34.193Z,5.72
2023-04-03T06:17:02.875Z,5.81
2023-04-03T06:19:30.737Z,5.95
2023-04-03T06:22:03.962Z,6.16
2023-04-03T06:24:31.928Z,6.19
2023-04-03T06:27:01.329Z,6.34
2023-04-03T06:29:29.021Z,6.36
2023-04-03T06:31:56.625Z,6.22
2023-04-03T06:34:24.170Z,6.17
2023-04-03T06:36:52.163Z,6.23
2023-04-03T06:39:24.116Z,6.40
2023-04-03T06:41:51.870Z,6.55
2023-04-03T06:44:27.244Z,6.61
2023-04-03T06:46:55.537Z,6.50
2023-04-03T06:49:23.448Z,6.24
2023-04-03T06:51:51.049Z,6.41
2023-04-03T06:54:18.762Z,6.54
2023-04-03T06:56:55.086Z,6.63
2023-04-03T06:59:26.995Z,6.41
2023-04-03T07:02:05.661Z,6.55
2023-04-03T07:04:33.774Z,6.71
2023-04-03T07:07:06.410Z,8.22
2023-04-03T07:09:34.535Z,7.92
2023-04-03T07:12:02.064Z,7.97
2023-04-03T07:14:29.934Z,7.53
2023-04-03T07:16:57.401Z,8.15
2023-04-03T07:19:28.484Z,8.09
2023-04-03T07:21:56.155Z,8.20
2023-04-03T07:24:23.755Z,9.69
2023-04-03T07:26:52.892Z,9.39
2023-04-03T07:29:25.878Z,8.46
2023-04-03T07:31:58.066Z,7.75
2023-04-03T07:34:30.091Z,7.29
2023-04-03T07:37:00.289Z,7.26
2023-04-03T07:39:29.038Z,7.02
2023-04-03T07:41:59.481Z,6.89
2023-04-03T07:44:27.551Z,7.23
2023-04-03T07:46:56.592Z,7.43
2023-04-03T07:49:27.457Z,7.15
2023-04-03T07:51:55.638Z,7.59
2023-04-03T07:54:22.982Z,7.59
2023-04-03T07:56:50.486Z,9.94
2023-04-03T08:00:19.874Z,8.84
2023-04-03T08:03:17.751Z,8.32
2023-04-03T08:06:44.796Z,7.84
2023-04-03T08:09:06.184Z,8.79
2023-04-03T08:11:37.650Z,9.97
2023-04-03T08:14:05.713Z,11.13
2023-04-03T08:16:33.141Z,9.24
2023-04-03T08:19:07.336Z,10.13
2023-04-03T08:21:38.143Z,9.73
2023-04-03T08:24:05.703Z,10.13
2023-04-03T08:26:41.521Z,8.88
2023-04-03T08:29:50.914Z,9.20
2023-04-03T08:32:20.202Z,10.34
2023-04-03T08:34:48.063Z,9.96
2023-04-03T08:40:21.543Z,9.42
2023-04-03T08:42:54.229Z,8.94
2023-04-03T08:45:43.245Z,8.49
2023-04-03T08:48:36.668Z,7.98
2023-04-03T08:51:12.121Z,7.73
2023-04-03T08:53:41.235Z,7.81
2023-04-03T08:56:10.614Z,8.24
2023-04-03T08:58:51.618Z,8.12
2023-04-03T09:01:22.435Z,7.67
2023-04-03T09:03:50.175Z,8.02
2023-04-03T09:06:32.715Z,7.87
2023-04-03T09:13:40.144Z,7.57
2023-04-03T09:16:26.015Z,8.12
2023-04-03T09:22:27.492Z,8.35
2023-04-03T09:25:43.301Z,8.22
2023-04-03T09:28:11.321Z,8.06
2023-04-03T09:31:15.792Z,8.43
2023-04-03T09:33:43.642Z,8.42
2023-04-03T09:39:25.358Z,8.52
2023-04-03T09:42:22.956Z,8.04
2023-04-03T09:45:04.888Z,8.18
2023-04-03T09:47:37.430Z,7.92
2023-04-03T09:50:15.556Z,8.29
2023-04-03T09:52:44.011Z,8.53
2023-04-03T09:55:27.870Z,8.54
2023-04-03T09:58:09.512Z,8.83
2023-04-03T10:00:40.816Z,8.85
2023-04-03T10:03:29.547Z,8.85
2023-04-03T10:06:00.395Z,9.24
2023-04-03T10:08:35.940Z,9.35
2023-04-03T10:11:16.298Z,9.49
2023-04-03T10:13:57.860Z,9.12
2023-04-03T10:16:47.545Z,8.69
2023-04-03T10:19:19.225Z,8.73
2023-04-03T10:21:55.675Z,9.12
2023-04-03T10:24:38.253Z,8.77
2023-04-03T10:27:11.497Z,9.17
2023-04-03T10:29:42.181Z,9.35
2023-04-03T10:32:51.737Z,9.27
2023-04-03T10:35:21.730Z,9.10
2023-04-03T10:38:00.963Z,9.03
2023-04-03T10:40:50.099Z,9.31
2023-04-03T10:43:31.030Z,9.04
2023-04-03T10:46:06.194Z,8.97
2023-04-03T10:48:41.401Z,8.99
2023-04-03T10:51:41.503Z,9.38
2023-04-03T10:54:27.426Z,9.41
2023-04-03T10:57:09.107Z,9.11
2023-04-03T10:59:50.269Z,9.24
2023-04-03T11:02:30.815Z,8.87
2023-04-03T11:05:20.599Z,9.25
2023-04-03T11:07:50.383Z,8.83
2023-04-03T11:10:46.085Z,8.54
2023-04-03T11:13:17.373Z,8.74
2023-04-03T11:15:47.630Z,9.08
2023-04-03T11:18:18.290Z,9.34
2023-04-03T11:21:20.912Z,9.01
2023-04-03T11:23:50.255Z,9.12
2023-04-03T11:26:23.267Z,8.88
2023-04-03T11:29:02.418Z,8.80
2023-04-03T11:31:55.558Z,9.45
2023-04-03T11:34:57.729Z,9.49
2023-04-03T11:37:41.679Z,9.25
2023-04-03T11:40:31.394Z,9.38
2023-04-03T11:43:38.369Z,9.28
2023-04-03T11:46:11.289Z,9.20
2023-04-03T11:48:49.856Z,9.31
2023-04-03T11:51:29.516Z,9.12
2023-04-03T11:54:00.849Z,9.48
2023-04-03T11:56:29.564Z,9.43
2023-04-03T11:59:06.245Z,10.03
2023-04-03T12:01:57.782Z,10.13
2023-04-03T12:04:26.808Z,9.99
2023-04-03T12:07:12.583Z,9.89
2023-04-03T12:09:46.029Z,9.72
2023-04-03T12:12:32.486Z,9.80
2023-04-03T12:15:18.577Z,9.72
2023-04-03T12:17:46.470Z,10.18
2023-04-03T12:20:51.893Z,9.91
2023-04-03T12:23:27.415Z,9.62
2023-04-03T12:26:00.605Z,9.82
2023-04-03T12:28:30.831Z,9.24
2023-04-03T12:30:58.325Z,8.88
2023-04-03T12:34:03.778Z,8.66
2023-04-03T12:36:51.751Z,8.38
2023-04-03T12:39:37.512Z,9.15
2023-04-03T12:42:37.085Z,9.70
2023-04-03T12:45:14.237Z,9.79
2023-04-03T12:47:41.720Z,10.14
2023-04-03T12:50:32.010Z,9.80
2023-04-03T12:53:06.353Z,9.49
2023-04-03T12:55:33.771Z,9.76
2023-04-03T12:58:28.980Z,9.86
2023-04-03T13:01:11.680Z,9.69
2023-04-03T13:03:40.615Z,9.70
2023-04-03T13:06:08.075Z,9.70
2023-04-03T13:08:35.864Z,9.63
2023-04-03T13:11:05.771Z,10.00
2023-04-03T13:13:33.048Z,10.40
2023-04-03T13:16:00.824Z,10.36
2023-04-03T13:18:33.184Z,10.24
2023-04-03T13:21:02.829Z,10.27
2023-04-03T13:23:31.139Z,10.36
2023-04-03T13:26:02.168Z,9.93
2023-04-03T13:28:29.778Z,9.43
2023-04-03T13:31:04.551Z,9.20
2023-04-03T13:33:33.795Z,9.05
2023-04-03T13:36:05.733Z,9.27
2023-04-03T13:38:34.812Z,9.38
2023-04-03T13:41:05.538Z,8.70
2023-04-03T13:43:35.391Z,8.67
2023-04-03T13:46:12.013Z,9.28
2023-04-03T13:48:50.546Z,9.86
2023-04-03T13:51:20.188Z,9.14
2023-04-03T13:53:55.622Z,8.94
2023-04-03T13:56:28.568Z,8.60
2023-04-03T13:58:57.240Z,8.49
2023-04-03T14:01:25.073Z,8.31
2023-04-03T14:04:00.271Z,8.31
2023-04-03T14:06:27.943Z,8.54
2023-04-03T14:08:55.211Z,8.84
2023-04-03T14:11:24.794Z,8.79
2023-04-03T14:13:52.101Z,8.69
2023-04-03T14:16:24.330Z,8.35
2023-04-03T14:18:53.288Z,8.01
2023-04-03T14:21:20.910Z,8.21
2023-04-03T14:23:48.565Z,8.59
2023-04-03T14:26:18.755Z,8.80
2023-04-03T14:28:47.466Z,8.62
2023-04-03T14:31:15.879Z,8.74
2023-04-03T14:33:43.415Z,8.31
2023-04-03T14:36:22.484Z,8.33
2023-04-03T14:38:50.182Z,8.28
2023-04-03T14:41:20.922Z,8.14
2023-04-03T14:43:48.645Z,8.20
2023-04-03T14:46:48.434Z,8.26
2023-04-03T14:49:22.699Z,8.09
2023-04-03T14:51:49.993Z,8.08
2023-04-03T14:54:19.958Z,8.01
2023-04-03T14:56:47.417Z,8.11
2023-04-03T14:59:15.613Z,8.01
2023-04-03T15:01:42.926Z,7.64
2023-04-03T15:04:14.729Z,7.83
2023-04-03T15:06:42.204Z,7.77
2023-04-03T15:09:28.321Z,7.91
2023-04-03T15:11:56.045Z,7.97
2023-04-03T15:14:35.839Z,7.84
2023-04-03T15:17:09.543Z,7.56
2023-04-03T15:19:38.407Z,7.46
2023-04-03T15:22:05.746Z,7.39
2023-04-03T15:24:33.108Z,7.52
2023-04-03T15:27:01.216Z,7.50
2023-04-03T15:29:28.660Z,7.29
2023-04-03T15:31:56.168Z,7.23
2023-04-03T15:34:23.682Z,7.16
2023-04-03T15:36:53.903Z,7.23
2023-04-03T15:39:21.937Z,7.16
2023-04-03T15:41:53.117Z,7.22
2023-04-03T15:44:20.815Z,7.11
2023-04-03T15:46:49.890Z,7.06
2023-04-03T15:49:17.227Z,6.84
2023-04-03T15:51:44.541Z,6.68
2023-04-03T15:54:12.024Z,6.46
2023-04-03T15:56:39.398Z,6.48
2023-04-03T15:59:06.945Z,6.53
2023-04-03T16:01:34.368Z,6.53
2023-04-03T16:04:01.748Z,6.54
2023-04-03T16:06:31.654Z,6.64
2023-04-03T16:08:59.118Z,6.51
2023-04-03T16:11:27.195Z,6.53
2023-04-03T16:13:56.000Z,6.41
2023-04-03T16:16:23.951Z,6.19
2023-04-03T16:18:51.208Z,6.02
2023-04-03T16:21:18.564Z,5.98
2023-04-03T16:23:45.923Z,5.96
2023-04-03T16:26:13.365Z,5.95
2023-04-03T16:28:41.291Z,5.95
2023-04-03T16:31:10.516Z,5.85
2023-04-03T16:33:39.336Z,5.84
2023-04-03T16:36:06.843Z,5.65
2023-04-03T16:38:34.232Z,5.69
2023-04-03T16:41:05.465Z,5.59
2023-04-03T16:43:33.654Z,5.52
2023-04-03T16:46:03.233Z,5.55
2023-04-03T16:48:31.276Z,5.61
2023-04-03T16:50:59.260Z,5.47
2023-04-03T16:53:26.701Z,5.43
2023-04-03T16:55:54.039Z,5.33
2023-04-03T16:58:23.428Z,5.36
2023-04-03T17:00:51.570Z,5.37
2023-04-03T17:03:18.850Z,5.30
2023-04-03T17:05:49.381Z,5.24
2023-04-03T17:08:17.703Z,5.31
2023-04-03T17:10:45.147Z,5.26
2023-04-03T17:13:12.718Z,5.20
2023-04-03T17:15:40.226Z,5.16
2023-04-03T17:18:08.079Z,5.15
2023-04-03T17:20:37.218Z,5.10
2023-04-03T17:23:05.208Z,5.07
2023-04-03T17:25:32.568Z,5.03
2023-04-03T17:27:59.914Z,5.00
2023-04-03T17:30:27.277Z,5.03
2023-04-03T17:32:54.646Z,4.97
2023-04-03T17:35:22.129Z,4.95
2023-04-03T17:37:50.478Z,4.97
2023-04-03T17:40:18.868Z,5.00
2023-04-03T17:42:46.212Z,5.06
2023-04-03T17:45:13.494Z,5.00
2023-04-03T17:47:41.003Z,4.93
2023-04-03T17:50:08.926Z,4.92
2023-04-03T17:52:36.873Z,4.96
2023-04-03T17:55:04.616Z,4.89
2023-04-03T17:57:31.930Z,4.85
2023-04-03T17:59:59.162Z,4.85
2023-04-03T18:02:26.566Z,4.82
2023-04-03T18:04:53.920Z,4.71
2023-04-03T18:07:21.227Z,4.68
2023-04-03T18:09:48.550Z,4.66
2023-04-03T18:12:15.953Z,4.75
2023-04-03T18:14:43.213Z,4.76
2023-04-03T18:17:11.182Z,4.75
2023-04-03T18:19:38.495Z,4.66
2023-04-03T18:22:12.157Z,4.68
2023-04-03T18:24:39.545Z,4.51
2023-04-03T18:27:11.826Z,4.59
2023-04-03T18:29:39.594Z,4.52
2023-04-03T18:32:07.126Z,4.42
2023-04-03T18:34:34.624Z,4.41
2023-04-03T18:37:03.289Z,4.44
2023-04-03T18:39:30.756Z,4.37
2023-04-03T18:41:58.983Z,4.30
2023-04-03T18:44:26.301Z,4.28
2023-04-03T18:46:54.062Z,4.30
2023-04-03T18:49:21.476Z,4.31
2023-04-03T18:51:48.735Z,4.24
2023-04-03T18:54:16.411Z,4.18
2023-04-03T18:56:43.685Z,4.24
2023-04-03T18:59:11.046Z,4.14
2023-04-03T19:01:38.373Z,4.10
2023-04-03T19:04:05.876Z,4.13
2023-04-03T19:06:36.551Z,4.06
2023-04-03T19:09:05.093Z,4.13
2023-04-03T19:11:32.461Z,4.16
2023-04-03T19:14:14.621Z,4.13
2023-04-03T19:16:43.235Z,4.11
2023-04-03T19:19:10.680Z,4.01
2023-04-03T19:21:41.494Z,4.04
2023-04-03T19:24:10.357Z,4.03
2023-04-03T19:26:37.752Z,4.03
2023-04-03T19:29:05.121Z,4.03
2023-04-03T19:31:34.053Z,4.06
2023-04-03T19:34:03.736Z,4.00
2023-04-03T19:36:31.577Z,3.97
2023-04-03T19:38:58.880Z,3.89
2023-04-03T19:41:27.495Z,3.93
2023-04-03T19:43:55.034Z,3.85
2023-04-03T19:46:23.544Z,3.83
2023-04-03T19:48:50.784Z,3.82
2023-04-03T19:51:18.443Z,3.73
2023-04-03T19:53:47.421Z,3.76
2023-04-03T19:56:17.733Z,3.77
2023-04-03T19:58:45.808Z,3.77
2023-04-03T20:01:13.184Z,3.79
2023-04-03T20:03:42.807Z,3.69
2023-04-03T20:06:10.033Z,3.66
2023-04-03T20:08:38.119Z,3.63
2023-04-03T20:11:05.996Z,3.66
2023-04-03T20:13:33.379Z,3.60
2023-04-03T20:16:07.632Z,3.63
2023-04-03T20:18:35.292Z,3.56
2023-04-03T20:21:03.814Z,3.52
2023-04-03T20:23:31.393Z,3.48
2023-04-03T20:26:09.546Z,3.46
2023-04-03T20:28:39.912Z,3.38
2023-04-03T20:31:09.334Z,3.49
2023-04-03T20:33:37.691Z,3.45
2023-04-03T20:36:04.998Z,3.46
2023-04-03T20:38:32.283Z,3.39
2023-04-03T20:41:00.276Z,3.39
2023-04-03T20:43:28.446Z,3.34
2023-04-03T20:45:55.873Z,3.35
2023-04-03T20:48:23.750Z,3.38
2023-04-03T20:50:51.201Z,3.36
2023-04-03T20:53:19.291Z,3.36
2023-04-03T20:56:00.707Z,3.38
2023-04-03T20:58:30.288Z,3.28
2023-04-03T21:00:57.757Z,3.24
2023-04-03T21:03:26.068Z,3.28
2023-04-03T21:06:03.815Z,3.27
2023-04-03T21:09:08.584Z,3.28
2023-04-03T21:12:13.133Z,3.21
2023-04-03T21:15:17.889Z,3.24
2023-04-03T21:18:36.852Z,3.24
2023-04-03T21:21:04.892Z,3.25
2023-04-03T21:23:32.231Z,3.24
2023-04-03T21:25:59.748Z,3.17
2023-04-03T21:28:27.297Z,3.18
2023-04-03T21:30:54.588Z,3.14
2023-04-03T21:33:22.095Z,3.18
2023-04-03T21:35:57.498Z,3.17
2023-04-03T21:38:26.087Z,3.12
2023-04-03T21:40:56.565Z,3.12
2023-04-03T21:43:24.546Z,3.08
2023-04-03T21:45:58.578Z,3.07
2023-04-03T21:48:27.827Z,3.05
2023-04-03T21:51:02.513Z,2.98
2023-04-03T21:53:30.816Z,3.01
2023-04-03T21:55:58.050Z,2.94
2023-04-03T21:58:32.494Z,2.94
2023-04-03T22:01:15.694Z,2.94
2023-04-03T22:03:43.963Z,2.97
2023-04-03T22:06:12.410Z,2.90
2023-04-03T22:08:40.066Z,2.93
2023-04-03T22:11:09.071Z,2.91
2023-04-03T22:13:37.519Z,2.87
2023-04-03T22:16:05.104Z,2.90
2023-04-03T22:18:32.676Z,2.94
2023-04-03T22:20:59.983Z,2.83
2023-04-03T22:23:27.484Z,2.86
2023-04-03T22:26:08.129Z,2.83
2023-04-03T22:28:37.721Z,2.87
2023-04-03T22:31:07.651Z,2.79
2023-04-03T22:33:36.573Z,2.76
2023-04-03T22:36:07.107Z,2.70
2023-04-03T22:38:35.132Z,2.72
2023-04-03T22:41:03.696Z,2.69
2023-04-03T22:43:32.569Z,2.69
2023-04-03T22:46:00.352Z,2.69
2023-04-03T22:48:27.837Z,2.64
2023-04-03T22:50:55.733Z,2.63
2023-04-03T22:53:23.332Z,2.61
2023-04-03T22:55:55.025Z,2.56
2023-04-03T22:58:25.846Z,2.59
2023-04-03T23:00:54.050Z,2.56
2023-04-03T23:03:23.324Z,2.56
2023-04-03T23:05:51.730Z,2.63
2023-04-03T23:08:19.274Z,2.59
2023-04-03T23:10:47.144Z,2.54
2023-04-03T23:13:14.413Z,2.49
2023-04-03T23:15:41.692Z,2.53
2023-04-03T23:18:09.984Z,2.52
2023-04-03T23:20:37.639Z,2.49
2023-04-03T23:23:05.908Z,2.50
2023-04-03T23:25:33.733Z,2.53
2023-04-03T23:28:01.063Z,2.48
2023-04-03T23:30:28.396Z,2.50
2023-04-03T23:32:55.673Z,2.43
2023-04-03T23:35:23.547Z,2.49
2023-04-03T23:37:50.825Z,2.39
2023-04-03T23:40:18.221Z,2.39
2023-04-03T23:42:45.426Z,2.46
2023-04-03T23:45:12.721Z,2.49
2023-04-03T23:47:40.376Z,2.33
2023-04-03T23:50:08.153Z,2.36
2023-04-03T23:52:35.375Z,2.33
2023-04-03T23:55:03.330Z,2.30
2023-04-03T23:57:30.641Z,2.25
2023-04-03T23:59:57.957Z,2.21
